createdAt,value
2023-11-21T00:01:53.193Z,4.05
2023-11-21T00:05:36.519Z,6.63
2023-11-21T00:09:19.005Z,4.53
2023-11-21T00:13:00.981Z,5.40
2023-11-21T00:16:43.129Z,3.13
2023-11-21T00:20:25.044Z,3.42
2023-11-21T00:24:07.052Z,3.15
2023-11-21T00:27:48.840Z,5.28
2023-11-21T00:31:31.945Z,3.55
2023-11-21T00:35:13.772Z,2.40
2023-11-21T00:38:56.922Z,2.42
2023-11-21T00:42:38.866Z,2.42
2023-11-21T00:46:20.783Z,2.95
2023-11-21T00:50:02.723Z,1.48
2023-11-21T00:53:44.550Z,2.53
2023-11-21T00:57:26.631Z,2.30
2023-11-21T01:01:08.747Z,2.58
2023-11-21T01:04:50.646Z,2.55
2023-11-21T01:08:32.534Z,0.95
2023-11-21T01:12:14.354Z,2.33
2023-11-21T01:15:56.690Z,2.13
2023-11-21T01:19:38.718Z,3.40
2023-11-21T01:23:20.999Z,1.42
2023-11-21T01:27:02.975Z,2.15
2023-11-21T01:30:45.769Z,2.75
2023-11-21T01:34:28.049Z,5.60
2023-11-21T01:38:09.905Z,2.45
2023-11-21T01:41:53.166Z,3.40
2023-11-21T01:45:35.187Z,1.33
2023-11-21T01:49:17.360Z,2.35
2023-11-21T01:52:59.452Z,1.50
2023-11-21T01:56:41.468Z,2.35
2023-11-21T02:00:24.795Z,2.17
2023-11-21T02:04:09.562Z,2.60
2023-11-21T02:07:53.332Z,2.08
2023-11-21T02:11:36.098Z,1.25
2023-11-21T02:15:21.324Z,4.38
2023-11-21T02:19:07.852Z,1.80
2023-11-21T02:23:01.494Z,3.25
2023-11-21T02:26:43.698Z,1.50
2023-11-21T02:30:34.337Z,2.20
2023-11-21T02:34:17.360Z,2.95
2023-11-21T02:37:59.179Z,2.17
2023-11-21T02:41:41.337Z,1.35
2023-11-21T02:45:23.568Z,1.65
2023-11-21T02:49:07.362Z,2.65
2023-11-21T02:52:49.304Z,1.02
2023-11-21T02:56:31.250Z,2.42
2023-11-21T03:00:16.698Z,1.38
2023-11-21T03:03:58.736Z,3.00
2023-11-21T03:07:41.641Z,4.38
2023-11-21T03:11:23.685Z,2.58
2023-11-21T03:15:07.482Z,2.53
2023-11-21T03:18:49.455Z,2.13
2023-11-21T03:22:31.329Z,2.40
2023-11-21T03:26:14.528Z,3.85
2023-11-21T03:29:56.812Z,3.13
2023-11-21T03:33:38.912Z,2.95
2023-11-21T03:37:21.876Z,4.18
2023-11-21T03:41:03.780Z,3.97
2023-11-21T03:44:45.629Z,6.03
2023-11-21T03:48:27.526Z,3.30
2023-11-21T03:52:10.261Z,4.97
2023-11-21T03:55:52.217Z,5.40
2023-11-21T03:59:34.140Z,4.13
2023-11-21T04:03:16.781Z,5.32
2023-11-21T04:06:58.697Z,5.05
2023-11-21T04:10:40.846Z,3.40
2023-11-21T04:14:23.082Z,5.40
2023-11-21T04:18:05.026Z,3.97
2023-11-21T04:21:47.167Z,3.95
2023-11-21T04:25:29.539Z,5.32
2023-11-21T04:29:11.441Z,3.67
2023-11-21T04:32:53.408Z,4.95
2023-11-21T04:36:36.104Z,3.60
2023-11-21T04:40:18.376Z,3.88
2023-11-21T04:44:02.018Z,3.75
2023-11-21T04:47:44.829Z,4.72
2023-11-21T04:51:26.722Z,4.07
2023-11-21T04:55:11.375Z,4.50
2023-11-21T04:58:55.039Z,4.30
2023-11-21T05:02:37.051Z,5.45
2023-11-21T05:06:18.950Z,3.70
2023-11-21T05:10:00.797Z,3.75
2023-11-21T05:13:42.650Z,4.70
2023-11-21T05:17:24.566Z,3.03
2023-11-21T05:21:06.617Z,2.97
2023-11-21T05:24:48.469Z,3.03
2023-11-21T05:28:30.350Z,1.75
2023-11-21T05:32:12.318Z,2.63
2023-11-21T05:35:54.295Z,1.75
2023-11-21T05:39:37.056Z,2.05
2023-11-21T05:43:19.193Z,3.33
2023-11-21T05:47:01.086Z,1.08
2023-11-21T05:50:42.972Z,1.08
2023-11-21T05:54:27.865Z,1.30
2023-11-21T05:58:09.833Z,2.20
2023-11-21T06:01:51.681Z,1.35
2023-11-21T06:05:34.599Z,2.22
2023-11-21T06:09:16.445Z,0.90
2023-11-21T06:13:01.513Z,0.95
2023-11-21T06:20:28.647Z,1.55
2023-11-21T06:24:11.698Z,1.10
2023-11-21T06:27:55.026Z,1.70
2023-11-21T06:31:37.073Z,1.00
2023-11-21T06:35:19.037Z,1.20
2023-11-21T06:39:00.894Z,3.45
2023-11-21T06:42:42.917Z,4.72
2023-11-21T06:46:25.104Z,0.68
2023-11-21T06:50:08.268Z,3.70
2023-11-21T06:53:50.067Z,1.23
2023-11-21T06:57:32.611Z,2.58
2023-11-21T07:01:15.090Z,1.02
2023-11-21T07:04:56.983Z,0.90
2023-11-21T07:08:39.083Z,0.60
2023-11-21T07:12:21.009Z,0.93
2023-11-21T07:16:02.885Z,1.67
2023-11-21T07:19:44.765Z,1.52
2023-11-21T07:23:27.021Z,1.38
2023-11-21T07:27:08.883Z,3.22
2023-11-21T07:30:50.720Z,1.35
2023-11-21T07:34:32.558Z,0.95
2023-11-21T07:38:14.395Z,1.30
2023-11-21T07:41:56.431Z,0.95
2023-11-21T07:45:38.376Z,1.40
2023-11-21T07:49:22.354Z,1.33
2023-11-21T07:53:06.886Z,1.75
2023-11-21T07:56:48.835Z,0.38
2023-11-21T08:00:32.192Z,0.68
2023-11-21T08:04:14.090Z,0.93
2023-11-21T08:07:56.394Z,1.13
2023-11-21T08:11:40.100Z,1.70
2023-11-21T08:15:21.985Z,0.98
2023-11-21T08:19:04.209Z,1.60
2023-11-21T08:22:46.209Z,0.85
2023-11-21T08:26:28.450Z,4.43
2023-11-21T08:30:10.850Z,2.05
2023-11-21T08:33:52.799Z,0.82
2023-11-21T08:37:38.373Z,1.38
2023-11-21T08:41:22.309Z,1.27
2023-11-21T08:45:04.740Z,0.80
2023-11-21T08:48:47.012Z,1.10
2023-11-21T08:52:28.905Z,0.75
2023-11-21T08:56:16.749Z,1.85
2023-11-21T08:59:58.695Z,0.70
2023-11-21T09:03:40.758Z,0.95
2023-11-21T09:07:22.761Z,0.45
2023-11-21T09:11:04.671Z,1.38
2023-11-21T09:14:46.557Z,1.15
2023-11-21T09:18:28.492Z,2.22
2023-11-21T09:22:10.460Z,1.85
2023-11-21T09:25:53.109Z,1.58
2023-11-21T09:29:35.135Z,2.97
2023-11-21T09:33:17.288Z,0.98
2023-11-21T09:36:59.232Z,1.25
2023-11-21T09:40:41.277Z,1.17
2023-11-21T09:44:43.464Z,0.82
2023-11-21T09:48:27.014Z,2.35
2023-11-21T09:52:16.490Z,2.40
2023-11-21T09:55:58.480Z,1.98
2023-11-21T09:59:41.697Z,3.22
2023-11-21T10:03:23.667Z,1.15
2023-11-21T10:07:10.102Z,1.25
2023-11-21T10:10:55.471Z,4.33
2023-11-21T10:14:42.345Z,2.00
2023-11-21T10:18:26.342Z,1.02
2023-11-21T10:22:08.202Z,2.80
2023-11-21T10:25:52.104Z,3.10
2023-11-21T10:29:36.880Z,3.58
2023-11-21T10:33:21.582Z,2.45
2023-11-21T10:37:13.610Z,2.40
2023-11-21T10:40:56.450Z,2.58
2023-11-21T10:44:39.008Z,2.53
2023-11-21T10:48:21.776Z,1.75
2023-11-21T10:52:05.063Z,1.77
2023-11-21T10:55:47.071Z,2.88
2023-11-21T10:59:33.731Z,2.85
2023-11-21T11:07:06.145Z,3.42
2023-11-21T11:10:51.496Z,1.48
2023-11-21T11:14:34.268Z,2.63
2023-11-21T11:18:17.526Z,2.40
2023-11-21T11:22:05.692Z,2.83
2023-11-21T11:26:13.381Z,1.65
2023-11-21T11:30:02.372Z,2.15
2023-11-21T11:33:46.564Z,2.20
2023-11-21T11:37:28.694Z,3.10
2023-11-21T11:41:11.413Z,6.72
2023-11-21T11:44:54.626Z,3.33
2023-11-21T11:48:40.810Z,1.80
2023-11-21T11:52:40.821Z,2.17
2023-11-21T11:56:35.509Z,2.75
2023-11-21T12:00:23.856Z,1.95
2023-11-21T12:04:35.333Z,2.70
2023-11-21T12:08:17.622Z,2.90
2023-11-21T12:11:59.638Z,2.47
2023-11-21T12:15:43.255Z,1.30
2023-11-21T12:19:25.372Z,3.47
2023-11-21T12:23:10.182Z,3.20
2023-11-21T12:26:52.256Z,3.17
2023-11-21T12:30:37.202Z,3.58
2023-11-21T12:34:19.438Z,1.35
2023-11-21T12:38:10.622Z,2.42
2023-11-21T12:41:52.670Z,2.45
2023-11-21T12:45:35.151Z,2.63
2023-11-21T12:49:19.581Z,1.55
2023-11-21T12:53:17.781Z,1.73
2023-11-21T12:57:01.203Z,1.40
2023-11-21T13:00:50.733Z,2.75
2023-11-21T13:04:36.003Z,1.42
2023-11-21T13:08:22.002Z,3.08
2023-11-21T13:12:04.747Z,2.17
2023-11-21T13:15:56.944Z,1.20
2023-11-21T13:19:38.887Z,2.80
2023-11-21T13:23:20.730Z,1.75
2023-11-21T13:27:02.564Z,2.47
2023-11-21T13:30:45.863Z,4.88
2023-11-21T13:34:32.011Z,2.03
2023-11-21T13:38:18.172Z,2.00
2023-11-21T13:42:00.011Z,1.65
2023-11-21T13:45:44.650Z,5.53
2023-11-21T13:49:27.926Z,1.50
2023-11-21T13:53:17.479Z,2.30
2023-11-21T13:57:01.818Z,2.97
2023-11-21T14:00:46.617Z,1.15
2023-11-21T14:04:31.376Z,4.43
2023-11-21T14:08:15.381Z,5.38
2023-11-21T14:11:58.351Z,1.50
2023-11-21T14:15:46.418Z,3.17
2023-11-21T14:19:32.708Z,3.70
2023-11-21T14:23:16.062Z,0.93
2023-11-21T14:26:57.869Z,1.33
2023-11-21T14:30:40.872Z,2.72
2023-11-21T14:34:23.564Z,2.25
2023-11-21T14:38:06.121Z,4.00
2023-11-21T14:41:48.194Z,3.58
2023-11-21T14:45:31.094Z,1.77
2023-11-21T14:49:24.487Z,3.20
2023-11-21T14:53:07.374Z,1.98
2023-11-21T14:56:49.195Z,4.47
2023-11-21T15:00:36.977Z,2.78
2023-11-21T15:04:36.686Z,2.80
2023-11-21T15:08:24.993Z,3.30
2023-11-21T15:12:16.255Z,2.42
2023-11-21T15:16:04.777Z,4.93
2023-11-21T15:19:46.743Z,4.72
2023-11-21T15:23:29.443Z,2.83
2023-11-21T15:27:12.073Z,2.67
2023-11-21T15:30:54.132Z,3.47
2023-11-21T15:34:38.313Z,3.40
2023-11-21T15:38:21.057Z,5.18
2023-11-21T15:42:05.203Z,2.95
2023-11-21T15:45:47.155Z,2.47
2023-11-21T15:49:31.098Z,2.55
2023-11-21T15:53:13.331Z,1.60
2023-11-21T15:56:58.700Z,3.33
2023-11-21T16:00:40.579Z,1.67
2023-11-21T16:04:24.572Z,7.25
2023-11-21T16:08:06.617Z,4.40
2023-11-21T16:11:49.647Z,6.70
2023-11-21T16:15:32.118Z,5.38
2023-11-21T16:19:13.968Z,3.47
2023-11-21T16:22:55.879Z,3.63
2023-11-21T16:26:37.688Z,2.80
2023-11-21T16:30:19.963Z,3.83
2023-11-21T16:34:08.835Z,9.85
2023-11-21T16:37:50.981Z,4.07
2023-11-21T16:41:33.881Z,4.47
2023-11-21T16:45:15.852Z,3.13
2023-11-21T16:48:57.668Z,4.15
2023-11-21T16:52:42.339Z,5.45
2023-11-21T16:56:25.364Z,4.05
2023-11-21T17:00:08.626Z,4.32
2023-11-21T17:03:52.351Z,5.35
2023-11-21T17:07:34.510Z,2.97
2023-11-21T17:11:16.444Z,5.15
2023-11-21T17:15:00.180Z,6.47
2023-11-21T17:18:42.040Z,4.72
2023-11-21T17:22:24.023Z,2.60
2023-11-21T17:26:06.138Z,4.50
2023-11-21T17:29:48.123Z,3.83
2023-11-21T17:33:30.092Z,3.72
2023-11-21T17:37:13.110Z,4.40
2023-11-21T17:40:55.106Z,6.05
2023-11-21T17:44:37.177Z,5.25
2023-11-21T17:48:19.211Z,4.10
2023-11-21T17:52:01.071Z,4.43
2023-11-21T17:55:42.918Z,3.45
2023-11-21T17:59:24.814Z,5.75
2023-11-21T18:03:06.795Z,2.75
2023-11-21T18:06:48.771Z,3.42
2023-11-21T18:10:30.589Z,3.30
2023-11-21T18:14:13.076Z,6.28
2023-11-21T18:17:55.165Z,4.40
2023-11-21T18:21:45.435Z,6.00
2023-11-21T18:25:29.881Z,6.50
2023-11-21T18:29:12.042Z,4.28
2023-11-21T18:32:54.066Z,6.18
2023-11-21T18:36:36.083Z,5.70
2023-11-21T18:40:18.412Z,5.63
2023-11-21T18:44:00.691Z,5.35
2023-11-21T18:47:43.141Z,5.65
2023-11-21T18:51:25.316Z,5.22
2023-11-21T18:55:07.957Z,6.32
2023-11-21T18:58:49.838Z,5.30
2023-11-21T19:02:31.900Z,5.35
2023-11-21T19:06:13.867Z,10.15
2023-11-21T19:09:56.288Z,5.82
2023-11-21T19:13:38.385Z,4.15
2023-11-21T19:17:21.624Z,6.25
2023-11-21T19:21:04.366Z,3.45
2023-11-21T19:24:46.231Z,4.80
2023-11-21T19:28:28.119Z,4.82
2023-11-21T19:32:09.985Z,4.45
2023-11-21T19:35:51.911Z,9.50
2023-11-21T19:39:33.804Z,5.30
2023-11-21T19:43:15.664Z,3.42
2023-11-21T19:46:57.645Z,6.82
2023-11-21T19:50:39.489Z,5.80
2023-11-21T19:54:21.445Z,7.00
2023-11-21T19:58:03.721Z,7.28
2023-11-21T20:01:45.726Z,5.70
2023-11-21T20:05:27.997Z,6.22
2023-11-21T20:09:11.229Z,6.47
2023-11-21T20:12:58.751Z,8.30
2023-11-21T20:16:44.132Z,6.20
2023-11-21T20:20:26.156Z,5.80
2023-11-21T20:24:08.673Z,7.82
2023-11-21T20:27:50.720Z,5.05
2023-11-21T20:31:32.541Z,7.10
2023-11-21T20:35:14.506Z,6.78
2023-11-21T20:38:56.364Z,4.25
2023-11-21T20:42:43.108Z,5.43
2023-11-21T20:46:25.015Z,9.95
2023-11-21T20:50:08.082Z,11.80
2023-11-21T20:53:50.132Z,9.75
2023-11-21T20:57:32.043Z,7.00
2023-11-21T21:01:15.049Z,7.28
2023-11-21T21:04:57.073Z,7.18
2023-11-21T21:08:39.833Z,4.95
2023-11-21T21:12:21.636Z,7.30
2023-11-21T21:16:03.638Z,7.40
2023-11-21T21:19:45.586Z,8.93
2023-11-21T21:23:27.372Z,7.63
2023-11-21T21:27:09.242Z,11.43
2023-11-21T21:30:51.125Z,7.43
2023-11-21T21:34:33.138Z,8.10
2023-11-21T21:38:15.098Z,9.35
2023-11-21T21:41:57.450Z,9.95
2023-11-21T21:45:39.423Z,6.45
2023-11-21T21:49:21.310Z,5.72
2023-11-21T21:53:03.333Z,6.22
2023-11-21T21:56:45.213Z,9.65
2023-11-21T22:00:32.864Z,6.63
2023-11-21T22:04:15.051Z,5.47
2023-11-21T22:07:56.924Z,8.32
2023-11-21T22:11:40.415Z,8.30
2023-11-21T22:15:22.659Z,7.30
2023-11-21T22:19:04.621Z,12.43
2023-11-21T22:22:46.655Z,5.78
2023-11-21T22:26:29.022Z,6.47
2023-11-21T22:30:11.675Z,7.68
2023-11-21T22:33:53.536Z,7.30
2023-11-21T22:37:35.357Z,15.38
2023-11-21T22:41:27.783Z,10.57
2023-11-21T22:45:10.004Z,5.65
2023-11-21T22:48:52.255Z,4.88
2023-11-21T22:52:34.872Z,8.02
2023-11-21T22:56:16.990Z,5.47
2023-11-21T22:59:58.917Z,4.93
2023-11-21T23:03:41.282Z,5.53
2023-11-21T23:07:23.153Z,5.57
2023-11-21T23:11:05.955Z,8.57
2023-11-21T23:14:47.763Z,6.55
2023-11-21T23:18:29.827Z,9.27
2023-11-21T23:22:11.640Z,7.72
2023-11-21T23:25:56.950Z,10.00
2023-11-21T23:29:47.487Z,7.90
2023-11-21T23:33:31.850Z,6.50
2023-11-21T23:37:13.938Z,10.95
2023-11-21T23:40:55.772Z,5.10
2023-11-21T23:44:37.619Z,7.80
2023-11-21T23:48:19.447Z,8.05
2023-11-21T23:52:01.294Z,6.22
2023-11-21T23:55:43.205Z,8.43
2023-11-21T23:59:25.833Z,7.47
